Time;durP1;ratioP1;P1;durP2;ratioP2;P2;SDS_P1;SDS_P2;PMS_P1;PMS_P2;Temp;Humidity;BMP_temperature;BMP_pressure;BME280_temperature;BME280_humidity;BME280_pressure;Samples;Min_cycle;Max_cycle;Signal;HPM_P1;HPM_P2
2021/11/04 00:00:15;;;;;;;452.38;406.88;;;12.50;84.20;;;11.62;100.00;100703.53;5028962;28;20419;-65
2021/11/04 00:02:44;;;;;;;447.90;402.70;;;12.50;84.00;;;11.62;100.00;100703.53;5029523;28;20481;-69
2021/11/04 00:05:12;;;;;;;446.38;401.27;;;12.50;84.70;;;11.60;100.00;100696.81;5029481;28;20430;-65
2021/11/04 00:07:41;;;;;;;444.65;399.48;;;12.40;83.80;;;11.57;100.00;100697.41;5029639;28;20833;-68
2021/11/04 00:10:11;;;;;;;440.10;394.95;;;12.40;83.80;;;11.54;100.00;100690.69;5028293;28;20426;-68
2021/11/04 00:12:40;;;;;;;449.63;404.33;;;12.40;84.00;;;11.52;100.00;100693.66;5029554;28;20419;-65
2021/11/04 00:15:10;;;;;;;440.25;395.35;;;12.40;83.80;;;11.50;100.00;100693.19;5029242;28;20411;-65
2021/11/04 00:17:39;;;;;;;447.48;401.95;;;12.40;83.70;;;11.51;100.00;100693.97;5029358;28;20422;-66
2021/11/04 00:20:10;;;;;;;446.38;401.25;;;12.40;83.60;;;11.52;100.00;100693.66;5028680;28;20474;-68
2021/11/04 00:22:38;;;;;;;444.08;398.85;;;12.40;83.40;;;11.53;100.00;100691.78;5029173;28;20426;-66
2021/11/04 00:28:48;;;;;;;440.60;395.67;;;12.40;83.00;;;11.55;100.00;100686.84;4999370;28;20430;-65
2021/11/04 00:31:18;;;;;;;443.52;398.45;;;12.40;82.90;;;11.56;100.00;100685.75;5032859;28;20506;-65
2021/11/04 00:33:46;;;;;;;444.90;399.50;;;12.40;82.70;;;11.58;100.00;100688.19;5032996;28;20422;-66
2021/11/04 00:36:14;;;;;;;442.63;397.27;;;12.40;82.40;;;11.60;100.00;100680.53;5032790;28;20825;-67
2021/11/04 00:38:45;;;;;;;440.00;395.00;;;12.40;82.30;;;11.64;100.00;100681.56;5031994;28;20422;-67
2021/11/04 00:41:14;;;;;;;443.48;398.27;;;12.50;82.10;;;11.65;100.00;100678.53;5032697;28;20451;-68
2021/11/04 00:43:42;;;;;;;450.40;405.07;;;12.50;81.80;;;11.63;100.00;100674.53;5032639;28;20422;-65
2021/11/04 00:46:10;;;;;;;449.50;404.30;;;12.50;81.60;;;11.65;100.00;100675.03;5032758;28;20472;-69
2021/11/04 00:48:40;;;;;;;446.85;401.80;;;12.50;81.50;;;11.64;100.00;100679.66;5031763;28;20461;-69
2021/11/04 00:51:09;;;;;;;444.95;399.75;;;12.50;81.30;;;11.61;100.00;100680.22;5032499;28;20824;-68
2021/11/04 00:53:37;;;;;;;453.98;408.77;;;12.40;81.30;;;11.59;100.00;100673.50;5032528;28;20418;-66
2021/11/04 00:56:06;;;;;;;442.50;397.48;;;12.40;81.20;;;11.49;100.00;100669.09;5032552;28;20418;-68
2021/11/04 00:58:34;;;;;;;445.88;400.73;;;12.40;81.40;;;11.39;100.00;100667.41;5031768;28;20452;-65
2021/11/04 01:01:02;;;;;;;436.33;391.42;;;12.30;81.60;;;11.28;100.00;100671.38;5032262;28;20829;-67
2021/11/04 01:03:32;;;;;;;431.58;386.85;;;12.20;81.70;;;11.21;100.00;100664.75;5032307;28;20427;-66
2021/11/04 01:06:02;;;;;;;423.30;378.52;;;12.10;82.00;;;11.14;100.00;100670.53;5031788;28;20474;-65
2021/11/04 01:08:32;;;;;;;416.23;371.73;;;12.00;82.10;;;11.07;100.00;100664.69;5031604;28;20477;-66
2021/11/04 01:11:00;;;;;;;417.08;372.50;;;11.90;82.30;;;11.01;100.00;100662.38;5032067;28;20425;-66
2021/11/04 01:13:28;;;;;;;412.90;368.10;;;11.90;82.80;;;10.98;100.00;100659.16;5032118;28;20410;-68
2021/11/04 01:15:56;;;;;;;410.77;366.10;;;11.90;83.20;;;11.01;100.00;100668.59;5032016;28;20415;-68
2021/11/04 01:18:24;;;;;;;408.92;364.35;;;11.90;83.30;;;11.02;100.00;100661.28;5031800;28;20410;-65
2021/11/04 01:20:53;;;;;;;409.38;364.83;;;11.90;83.30;;;11.04;100.00;100661.78;5031289;28;20422;-66
2021/11/04 01:23:22;;;;;;;412.30;367.73;;;11.90;83.60;;;11.00;100.00;100668.91;5030515;28;20955;-69
2021/11/04 01:25:50;;;;;;;408.58;364.27;;;11.80;83.10;;;10.94;100.00;100660.84;5031935;28;20838;-69
2021/11/04 01:28:19;;;;;;;401.40;357.17;;;11.80;83.40;;;10.90;100.00;100662.56;5031533;28;20877;-66
2021/11/04 01:30:50;;;;;;;401.70;357.30;;;11.80;83.70;;;10.93;100.00;100661.97;5031070;28;20415;-65
2021/11/04 01:33:19;;;;;;;397.00;353.05;;;11.80;84.00;;;10.95;100.00;100665.16;5031726;28;20897;-67
2021/11/04 01:35:47;;;;;;;403.45;359.15;;;11.80;84.00;;;10.98;100.00;100664.56;5031751;28;20419;-66
2021/11/04 01:38:17;;;;;;;397.80;353.73;;;11.80;84.00;;;10.97;100.00;100664.88;5031125;28;20422;-67
2021/11/04 01:40:47;;;;;;;400.55;356.52;;;11.80;84.10;;;11.02;100.00;100659.38;5030994;28;20918;-68
2021/11/04 01:43:15;;;;;;;406.83;362.63;;;11.90;84.30;;;11.09;100.00;100661.72;5031462;28;20419;-68
2021/11/04 01:45:44;;;;;;;418.23;373.52;;;11.90;84.30;;;11.12;100.00;100655.72;5031252;28;20986;-66
2021/11/04 01:48:12;;;;;;;412.60;367.98;;;12.00;84.20;;;11.17;100.00;100661.03;5030850;28;20423;-68
2021/11/04 01:50:41;;;;;;;426.48;381.80;;;12.00;84.10;;;11.22;100.00;100663.63;5029867;28;20469;-64
2021/11/04 01:53:10;;;;;;;427.42;382.88;;;12.00;84.10;;;11.26;100.00;100659.25;5031275;28;20485;-69
2021/11/04 01:55:38;;;;;;;438.52;393.52;;;12.10;84.20;;;11.29;100.00;100658.63;5031379;28;20821;-68
2021/11/04 01:58:08;;;;;;;432.40;387.35;;;12.10;84.30;;;11.35;100.00;100660.16;5031408;28;20422;-66
2021/11/04 02:00:36;;;;;;;430.15;385.33;;;12.10;84.00;;;11.39;100.00;100648.44;5030512;28;20477;-70
2021/11/04 02:03:13;;;;;;;442.88;397.88;;;12.20;84.00;;;11.44;100.00;100653.75;5031207;28;20488;-66
2021/11/04 02:05:51;;;;;;;444.77;399.58;;;12.20;83.80;;;11.43;100.00;100651.34;5031051;28;20518;-67
2021/11/04 02:08:29;;;;;;;432.58;387.70;;;12.30;83.80;;;11.44;100.00;100647.53;5030875;28;20522;-69
2021/11/04 02:11:05;;;;;;;438.27;393.37;;;12.30;83.90;;;11.46;100.00;100648.03;5030576;28;20494;-66
2021/11/04 02:13:46;;;;;;;442.85;397.90;;;12.30;83.80;;;11.47;100.00;100649.63;5031093;28;20774;-67
2021/11/04 02:16:16;;;;;;;437.58;392.77;;;12.30;83.80;;;11.50;100.00;100644.44;5030977;28;20534;-65
2021/11/04 02:18:47;;;;;;;446.50;401.63;;;12.30;83.90;;;11.53;100.00;100645.72;5030231;28;20433;-66
2021/11/04 02:21:22;;;;;;;446.60;401.37;;;12.40;84.00;;;11.63;100.00;100642.84;5030787;28;20419;-67
2021/11/04 02:24:00;;;;;;;443.90;398.90;;;12.40;84.10;;;11.69;100.00;100635.41;5030872;28;20426;-69
2021/11/04 02:26:30;;;;;;;457.10;411.57;;;12.50;84.10;;;11.79;100.00;100635.25;5030786;28;20427;-63
2021/11/04 02:29:00;;;;;;;463.63;417.73;;;12.60;84.00;;;11.86;100.00;100638.34;5029958;28;20512;-65
2021/11/04 02:31:31;;;;;;;462.95;417.60;;;12.70;83.80;;;11.88;100.00;100626.13;5030679;28;20414;-66
2021/11/04 02:33:59;;;;;;;461.17;415.77;;;12.70;83.70;;;11.91;100.00;100628.22;5030647;28;20417;-64
2021/11/04 02:36:28;;;;;;;459.48;413.73;;;12.80;83.80;;;11.91;100.00;100622.00;5030698;28;20893;-71
2021/11/04 02:38:58;;;;;;;465.77;419.85;;;12.80;83.70;;;11.90;100.00;100623.91;5029805;28;20468;-64
2021/11/04 02:41:26;;;;;;;472.42;426.83;;;12.80;83.70;;;11.88;100.00;100628.81;5030232;28;20419;-65
2021/11/04 02:43:57;;;;;;;465.75;420.35;;;12.70;83.70;;;11.86;100.00;100624.78;5030702;28;20457;-68
2021/11/04 02:46:26;;;;;;;461.92;416.60;;;12.70;83.90;;;11.83;100.00;100620.78;5030419;28;20438;-64
2021/11/04 02:48:55;;;;;;;457.08;412.02;;;12.70;84.00;;;11.82;100.00;100618.38;5028979;28;20419;-65
2021/11/04 02:51:23;;;;;;;456.95;411.60;;;12.70;84.00;;;11.83;100.00;100615.38;5030133;28;20821;-69
2021/11/04 02:53:52;;;;;;;457.50;412.17;;;12.70;84.10;;;11.79;100.00;100616.28;5030279;28;20426;-70
2021/11/04 02:56:20;;;;;;;457.70;412.25;;;12.60;84.10;;;11.75;100.00;100609.84;5030286;28;20415;-67
2021/11/04 02:58:48;;;;;;;465.33;419.42;;;12.60;84.30;;;11.73;100.00;100612.06;5029650;28;20896;-67
2021/11/04 03:01:18;;;;;;;469.20;423.58;;;12.60;84.60;;;11.74;100.00;100609.06;5030076;28;20430;-65
2021/11/04 03:03:46;;;;;;;462.08;416.60;;;12.60;85.60;;;11.75;100.00;100612.56;5030156;28;20423;-68
2021/11/04 03:06:15;;;;;;;475.40;429.42;;;12.60;84.60;;;11.70;100.00;100608.06;5030184;28;20435;-65
2021/11/04 03:08:43;;;;;;;455.85;410.48;;;12.60;84.50;;;11.64;100.00;100606.53;5029392;28;20459;-64
2021/11/04 03:11:11;;;;;;;463.47;418.10;;;12.50;84.50;;;11.57;100.00;100606.13;5030269;28;20419;-66
2021/11/04 03:13:40;;;;;;;452.97;407.67;;;12.50;84.60;;;11.53;100.00;100607.81;5029959;28;20482;-69
2021/11/04 03:16:13;;;;;;;455.70;410.37;;;12.40;84.60;;;11.42;100.00;100604.53;5030098;28;20419;-66
2021/11/04 03:18:43;;;;;;;443.25;397.88;;;12.30;84.80;;;11.38;100.00;100611.63;5029224;28;20419;-66
2021/11/04 03:21:11;;;;;;;437.85;392.92;;;12.30;85.10;;;11.38;100.00;100603.50;5029938;28;20459;-66
2021/11/04 03:23:39;;;;;;;433.27;388.52;;;12.20;85.00;;;11.40;100.00;100605.91;5029773;28;20430;-64
2021/11/04 03:26:08;;;;;;;438.23;393.23;;;12.20;85.10;;;11.44;100.00;100613.16;5029954;28;20430;-68
2021/11/04 03:28:36;;;;;;;433.23;388.50;;;12.30;85.20;;;11.48;100.00;100602.53;5029138;28;20879;-67
2021/11/04 03:31:06;;;;;;;430.58;385.70;;;12.30;85.10;;;11.50;100.00;100606.53;5029843;28;20464;-68
2021/11/04 03:33:35;;;;;;;438.35;393.25;;;12.40;85.20;;;11.50;100.00;100616.56;5029791;28;20848;-64
2021/11/04 03:36:07;;;;;;;445.00;399.93;;;12.30;85.10;;;11.49;100.00;100614.94;5029707;28;20477;-71
2021/11/04 03:38:36;;;;;;;438.40;393.35;;;12.30;84.70;;;11.50;100.00;100611.13;5029163;28;20473;-64
2021/11/04 03:41:06;;;;;;;435.63;390.63;;;12.30;84.70;;;11.47;100.00;100609.84;5029598;28;20520;-67
2021/11/04 03:43:36;;;;;;;447.58;402.48;;;12.30;84.80;;;11.47;100.00;100606.31;5029698;28;20897;-67
2021/11/04 03:46:07;;;;;;;432.45;387.90;;;12.30;85.10;;;11.48;100.00;100603.31;5029624;28;20430;-65
2021/11/04 03:48:37;;;;;;;433.88;389.10;;;12.30;85.00;;;11.52;100.00;100615.13;5029069;28;20422;-65
2021/11/04 03:51:08;;;;;;;433.47;388.77;;;12.40;84.80;;;11.55;100.00;100602.91;5029640;28;20445;-67
2021/11/04 03:53:37;;;;;;;435.13;390.38;;;12.40;84.70;;;11.57;100.00;100603.41;5029617;28;20411;-67
2021/11/04 03:56:06;;;;;;;442.80;397.88;;;12.40;84.50;;;11.55;100.00;100604.84;5029499;28;20881;-68
2021/11/04 03:58:39;;;;;;;453.67;408.57;;;12.40;84.60;;;11.51;100.00;100605.44;5028916;28;20882;-67
2021/11/04 04:01:09;;;;;;;453.42;408.33;;;12.40;84.50;;;11.48;100.00;100602.53;5032485;28;20414;-67
2021/11/04 04:03:37;;;;;;;454.67;409.50;;;12.30;84.50;;;11.44;100.00;100601.50;5033294;28;20429;-65
2021/11/04 04:06:09;;;;;;;453.63;408.52;;;12.30;84.60;;;11.43;100.00;100608.00;5033248;28;20864;-69
2021/11/04 04:08:40;;;;;;;459.63;414.08;;;12.30;84.70;;;11.42;100.00;100609.13;5032657;28;20560;-66
2021/11/04 04:11:08;;;;;;;445.60;400.35;;;12.30;84.70;;;11.37;100.00;100606.50;5033374;28;20468;-70
2021/11/04 04:13:36;;;;;;;453.05;407.65;;;12.30;84.80;;;11.29;100.00;100607.22;5033517;28;20461;-65
2021/11/04 04:16:05;;;;;;;436.13;391.23;;;12.20;85.00;;;11.26;100.00;100611.31;5033063;28;20453;-67
2021/11/04 04:18:33;;;;;;;423.58;379.10;;;12.10;85.00;;;11.25;100.00;100612.41;5032796;28;20414;-65
2021/11/04 04:21:01;;;;;;;423.52;379.20;;;12.10;85.10;;;11.29;100.00;100616.13;5032960;28;20430;-65
2021/11/04 04:23:31;;;;;;;420.67;375.92;;;12.20;85.30;;;11.31;100.00;100611.22;5033158;28;20419;-66
2021/11/04 04:25:59;;;;;;;421.20;376.65;;;12.10;84.90;;;11.36;100.00;100610.34;5032981;28;20434;-68
2021/11/04 04:28:27;;;;;;;425.35;380.83;;;12.20;85.00;;;11.40;100.00;100614.84;5032699;28;20423;-65
2021/11/04 04:30:56;;;;;;;426.17;381.63;;;12.20;85.00;;;11.41;100.00;100619.16;5032854;28;20894;-64
2021/11/04 04:33:24;;;;;;;434.30;389.38;;;12.30;84.70;;;11.37;100.00;100628.16;5032916;28;20414;-67
2021/11/04 04:35:52;;;;;;;416.38;371.80;;;12.20;84.60;;;11.34;100.00;100623.34;5032795;28;20414;-65
2021/11/04 04:38:21;;;;;;;418.10;373.67;;;12.20;84.50;;;11.32;100.00;100634.50;5032588;28;20419;-66
2021/11/04 04:40:51;;;;;;;416.83;372.35;;;12.10;84.60;;;11.30;100.00;100635.91;5032275;28;20940;-66
2021/11/04 04:43:20;;;;;;;419.10;374.55;;;12.10;84.70;;;11.25;100.00;100627.84;5032643;28;20418;-63
2021/11/04 04:45:48;;;;;;;422.57;377.93;;;12.10;84.70;;;11.17;100.00;100634.75;5032725;28;20449;-67
2021/11/04 04:48:16;;;;;;;406.00;361.70;;;12.00;84.40;;;11.09;100.00;100626.53;5032511;28;20407;-66
2021/11/04 04:50:45;;;;;;;400.45;356.48;;;11.90;84.30;;;11.01;100.00;100629.91;5031907;28;20423;-66
2021/11/04 04:53:13;;;;;;;398.05;353.27;;;11.80;84.30;;;10.86;100.00;100629.06;5032703;28;20418;-67
2021/11/04 04:55:42;;;;;;;396.40;350.52;;;11.70;84.40;;;10.87;100.00;100635.28;5032509;28;20872;-64
2021/11/04 04:58:12;;;;;;;395.13;347.40;;;11.70;85.20;;;10.91;100.00;100639.03;5032634;28;20805;-67
2021/11/04 05:00:40;;;;;;;402.38;358.08;;;11.70;85.60;;;10.94;100.00;100641.13;5031686;28;20429;-65
2021/11/04 05:03:08;;;;;;;395.63;348.02;;;11.80;85.30;;;10.93;100.00;100644.94;5032463;28;20423;-66
2021/11/04 05:05:36;;;;;;;396.00;348.48;;;11.80;85.10;;;10.89;100.00;100646.59;5032345;28;20414;-69
2021/11/04 05:08:05;;;;;;;393.20;346.58;;;11.70;85.00;;;10.84;100.00;100646.69;5032168;28;20427;-66
2021/11/04 05:10:33;;;;;;;398.42;350.60;;;11.70;84.80;;;10.78;100.00;100648.69;5031462;28;20418;-65
2021/11/04 05:13:01;;;;;;;393.10;345.77;;;11.70;85.00;;;10.70;100.00;100638.53;5031112;28;20453;-68
2021/11/04 05:15:31;;;;;;;394.70;342.23;;;11.60;84.70;;;10.64;100.00;100642.41;5032269;28;20943;-67
2021/11/04 05:17:59;;;;;;;394.33;336.65;;;11.50;84.80;;;10.57;100.00;100641.19;5032177;28;20419;-67
2021/11/04 05:20:29;;;;;;;393.38;334.90;;;11.40;84.70;;;10.51;100.00;100645.88;5031218;28;20901;-66
2021/11/04 05:22:57;;;;;;;393.20;333.50;;;11.40;85.00;;;10.44;100.00;100648.13;5032132;28;20414;-63
2021/11/04 05:25:25;;;;;;;388.73;316.33;;;11.30;85.10;;;10.41;100.00;100646.81;5031979;28;20415;-65
2021/11/04 05:27:54;;;;;;;390.02;320.95;;;11.30;85.40;;;10.41;100.00;100641.41;5031910;28;20909;-69
2021/11/04 05:30:22;;;;;;;387.38;315.92;;;11.30;85.40;;;10.45;100.00;100646.22;5031110;28;20419;-69
2021/11/04 05:32:52;;;;;;;386.65;314.60;;;11.30;85.40;;;10.43;100.00;100646.50;5031941;28;20426;-70
2021/11/04 05:35:21;;;;;;;388.10;315.58;;;11.30;85.40;;;10.36;100.00;100646.09;5031841;28;20469;-66
2021/11/04 05:37:49;;;;;;;387.70;317.50;;;11.20;85.00;;;10.24;100.00;100645.72;5031824;28;20415;-70
2021/11/04 05:40:17;;;;;;;389.30;307.52;;;11.10;85.20;;;10.16;100.00;100651.75;5031015;28;20491;-69
2021/11/04 05:42:46;;;;;;;385.40;306.75;;;11.00;85.40;;;10.10;100.00;100644.78;5031674;28;20881;-63
2021/11/04 05:45:14;;;;;;;387.45;307.70;;;11.00;85.60;;;10.09;100.00;100652.09;5031851;28;20904;-66
2021/11/04 05:47:42;;;;;;;386.17;301.35;;;10.90;85.90;;;10.12;100.00;100648.03;5031385;28;20439;-65
2021/11/04 05:50:13;;;;;;;387.27;302.90;;;11.00;86.10;;;10.13;100.00;100647.75;5030888;28;20904;-66
2021/11/04 05:52:41;;;;;;;386.90;306.95;;;11.00;85.80;;;10.14;100.00;100643.97;5031380;28;20419;-65
2021/11/04 05:55:10;;;;;;;385.30;301.80;;;11.00;86.00;;;10.17;100.00;100656.09;5031587;28;20419;-65
2021/11/04 05:57:38;;;;;;;387.50;301.83;;;11.00;85.90;;;10.13;100.00;100652.31;5031426;28;20432;-65
2021/11/04 06:00:08;;;;;;;387.38;304.83;;;10.90;85.60;;;10.10;100.00;100650.19;5030496;28;20415;-65
2021/11/04 06:02:36;;;;;;;388.00;304.70;;;10.90;86.00;;;10.08;100.00;100650.50;5030225;28;20417;-69
2021/11/04 06:05:05;;;;;;;393.63;312.65;;;10.90;87.00;;;10.09;100.00;100652.09;5031116;28;20419;-69
2021/11/04 06:07:34;;;;;;;390.75;306.30;;;11.00;86.50;;;10.06;100.00;100652.66;5031088;28;20558;-66
2021/11/04 06:10:03;;;;;;;384.17;299.10;;;10.90;86.40;;;10.07;100.00;100648.06;5030285;28;20893;-67
2021/11/04 06:12:31;;;;;;;387.13;298.40;;;10.90;86.50;;;10.05;100.00;100652.97;5031170;28;20426;-67
2021/11/04 06:14:59;;;;;;;385.42;298.75;;;10.90;86.50;;;10.02;100.00;100648.94;5031074;28;20824;-67
2021/11/04 06:17:27;;;;;;;388.03;301.97;;;10.80;86.30;;;10.00;100.00;100653.03;5031066;28;20415;-63
2021/11/04 06:19:56;;;;;;;387.58;295.52;;;10.80;86.30;;;9.89;100.00;100655.84;5030036;28;20411;-67
2021/11/04 06:22:25;;;;;;;387.15;300.33;;;10.70;86.30;;;9.83;100.00;100662.41;5030785;28;20423;-69
2021/11/04 06:24:54;;;;;;;383.63;296.77;;;10.70;86.60;;;9.80;100.00;100656.78;5030902;28;20492;-70
2021/11/04 06:27:23;;;;;;;381.80;292.73;;;10.60;86.80;;;9.77;100.00;100666.28;5030659;28;20437;-68
2021/11/04 06:29:51;;;;;;;384.63;290.05;;;10.60;87.20;;;9.77;100.00;100665.47;5030038;28;20460;-68
2021/11/04 06:32:19;;;;;;;383.88;291.27;;;10.60;87.30;;;9.73;100.00;100664.41;5030583;28;20457;-69
2021/11/04 06:34:47;;;;;;;381.38;285.90;;;10.50;87.00;;;9.62;100.00;100662.94;5030691;28;20415;-67
2021/11/04 06:37:15;;;;;;;381.50;287.80;;;10.50;87.50;;;9.63;100.00;100669.94;5030582;28;20473;-65
2021/11/04 06:39:43;;;;;;;386.33;292.40;;;10.50;88.00;;;9.62;100.00;100673.72;5029768;28;20419;-65
2021/11/04 06:42:13;;;;;;;384.27;288.15;;;10.40;88.20;;;9.68;100.00;100676.09;5030507;28;20419;-67
2021/11/04 06:44:41;;;;;;;383.45;283.83;;;10.50;88.60;;;9.73;100.00;100683.31;5030505;28;20452;-66
2021/11/04 06:47:20;;;;;;;384.42;293.77;;;10.60;88.70;;;9.94;100.00;100689.31;5030420;28;20438;-68
2021/11/04 06:49:52;;;;;;;385.73;306.10;;;10.70;89.20;;;10.14;100.00;100691.78;5029733;28;20515;-67
2021/11/04 06:52:27;;;;;;;387.13;312.48;;;10.90;89.20;;;10.27;100.00;100688.38;5030514;28;20451;-67
2021/11/04 06:54:57;;;;;;;388.38;317.10;;;11.10;88.50;;;10.36;100.00;100690.16;5030302;28;20426;-66
2021/11/04 06:57:28;;;;;;;389.95;322.55;;;11.20;88.30;;;10.39;100.00;100691.47;5030135;28;20514;-65
2021/11/04 06:59:59;;;;;;;390.02;321.17;;;11.20;87.70;;;10.38;100.00;100689.84;5029462;28;20443;-66
2021/11/04 07:02:36;;;;;;;395.90;330.58;;;11.20;87.50;;;10.45;100.00;100700.28;5030413;28;20411;-64
2021/11/04 07:05:06;;;;;;;395.38;336.95;;;11.30;87.70;;;10.50;100.00;100703.72;5030113;28;20407;-64
2021/11/04 07:07:43;;;;;;;392.93;330.00;;;11.30;87.50;;;10.53;100.00;100700.44;5030009;28;20497;-64
2021/11/04 07:10:12;;;;;;;391.77;337.83;;;11.40;87.50;;;10.58;100.00;100700.34;5029089;28;20427;-67
2021/11/04 07:12:47;;;;;;;393.95;335.85;;;11.40;87.40;;;10.64;100.00;100701.91;5029959;28;20469;-64
2021/11/04 07:15:17;;;;;;;392.27;334.43;;;11.50;87.30;;;10.67;100.00;100709.41;5029847;28;20415;-66
2021/11/04 07:17:48;;;;;;;395.08;345.08;;;11.50;87.20;;;10.71;100.00;100712.34;5030314;28;20407;-64
2021/11/04 07:20:18;;;;;;;397.20;345.65;;;11.60;87.30;;;10.86;100.00;100710.22;5029140;28;20476;-71
2021/11/04 07:22:52;;;;;;;394.00;346.00;;;11.70;87.20;;;11.15;100.00;100717.34;5030122;28;20859;-69
2021/11/04 07:25:22;;;;;;;397.25;353.35;;;12.00;86.50;;;11.50;100.00;100725.66;5029794;28;20423;-68
2021/11/04 07:27:59;;;;;;;424.92;380.23;;;12.40;85.80;;;11.91;100.00;100716.81;5029958;28;20871;-65
2021/11/04 07:30:30;;;;;;;441.73;396.63;;;12.80;85.40;;;12.36;100.00;100720.50;5029221;28;20473;-66
2021/11/04 07:33:01;;;;;;;467.15;421.63;;;13.20;84.30;;;12.72;100.00;100713.19;5030008;28;20411;-68
2021/11/04 07:35:32;;;;;;;495.38;449.30;;;13.60;82.90;;;13.07;100.00;100717.78;5029248;28;20423;-65
2021/11/04 07:38:02;;;;;;;516.85;470.75;;;13.90;81.60;;;13.41;100.00;100727.28;5029886;28;20485;-66
2021/11/04 07:40:31;;;;;;;534.83;488.27;;;14.30;80.50;;;13.68;100.00;100732.53;5028938;28;20419;-66
2021/11/04 07:43:02;;;;;;;550.60;503.90;;;14.60;79.60;;;13.94;100.00;100730.75;5029614;28;20437;-68
2021/11/04 07:45:32;;;;;;;581.50;534.10;;;14.90;78.60;;;14.12;100.00;100734.34;5029491;28;20402;-65
2021/11/04 07:48:01;;;;;;;588.55;541.17;;;15.00;77.70;;;14.23;100.00;100738.38;5029573;28;20435;-69
2021/11/04 07:50:33;;;;;;;600.45;553.15;;;15.20;77.60;;;14.39;100.00;100739.56;5028837;28;20414;-68
2021/11/04 07:53:02;;;;;;;612.90;565.27;;;15.30;77.20;;;14.53;100.00;100740.22;5029527;28;20832;-68
2021/11/04 07:55:30;;;;;;;625.42;577.38;;;15.40;76.90;;;14.66;100.00;100750.19;5029598;28;20422;-66
2021/11/04 07:58:02;;;;;;;622.90;575.13;;;15.60;76.90;;;14.65;100.00;100745.84;5029419;28;20411;-66
2021/11/04 08:00:30;;;;;;;629.20;581.30;;;15.60;76.60;;;14.57;100.00;100745.84;5028964;28;20824;-67
2021/11/04 08:02:58;;;;;;;626.30;578.50;;;15.50;77.10;;;14.50;100.00;100753.69;5029699;28;20774;-66
2021/11/04 08:05:26;;;;;;;623.23;575.33;;;15.40;77.40;;;14.45;100.00;100751.09;5029422;28;20887;-67
2021/11/04 08:07:55;;;;;;;622.25;574.22;;;15.30;77.90;;;14.43;100.00;100762.31;5029596;28;20829;-65
2021/11/04 08:10:23;;;;;;;618.72;570.92;;;15.30;78.60;;;14.52;100.00;100765.03;5028530;28;20480;-68
2021/11/04 08:12:51;;;;;;;605.10;557.30;;;15.30;78.90;;;14.66;100.00;100771.13;5029343;28;20482;-67
2021/11/04 08:15:21;;;;;;;612.65;564.95;;;15.40;78.60;;;14.70;100.00;100772.94;5029466;28;20419;-67
2021/11/04 08:17:49;;;;;;;624.72;576.70;;;15.40;77.30;;;14.82;100.00;100772.28;5029349;28;20414;-68
2021/11/04 08:20:17;;;;;;;618.53;570.67;;;15.60;77.30;;;14.92;100.00;100787.53;5028743;28;20422;-66
2021/11/04 08:22:46;;;;;;;631.78;583.58;;;15.60;77.10;;;15.03;100.00;100783.34;5029459;28;20878;-67
2021/11/04 08:25:14;;;;;;;631.40;583.28;;;15.70;77.10;;;15.18;100.00;100786.41;5029325;28;20419;-69
2021/11/04 08:27:42;;;;;;;645.13;596.72;;;15.80;77.10;;;15.32;100.00;100795.19;5029046;28;20434;-67
2021/11/04 08:30:15;;;;;;;641.95;593.53;;;16.00;76.90;;;15.45;100.00;100792.63;5028533;28;20414;-67
2021/11/04 08:32:45;;;;;;;653.25;604.85;;;16.10;76.30;;;15.52;100.00;100792.97;5029297;28;20525;-65
2021/11/04 08:35:14;;;;;;;662.53;613.60;;;16.30;76.30;;;15.62;100.00;100798.09;5029423;28;20415;-65
2021/11/04 08:37:42;;;;;;;679.60;630.65;;;16.40;76.20;;;15.72;100.00;100805.91;5028960;28;20415;-65
2021/11/04 08:40:11;;;;;;;683.38;634.08;;;16.50;75.90;;;15.81;100.00;100807.50;5028547;28;20422;-64
2021/11/04 08:42:40;;;;;;;688.40;639.03;;;16.60;75.40;;;15.96;100.00;100808.88;5029260;28;20449;-65
2021/11/04 08:45:10;;;;;;;691.25;641.88;;;16.70;75.40;;;16.03;100.00;100811.94;5029234;28;20407;-66
2021/11/04 08:47:39;;;;;;;694.70;645.33;;;16.80;74.70;;;16.17;100.00;100812.50;5030913;28;20439;-64
2021/11/04 08:50:12;;;;;;;379.92;337.13;;;16.90;74.60;;;16.41;100.00;100814.66;5033113;28;20297;-66
2021/11/04 08:52:41;;;;;;;661.97;613.13;;;16.90;73.70;;;16.37;100.00;100819.19;5032679;28;20469;-66
2021/11/04 08:55:11;;;;;;;699.47;650.05;;;17.10;73.90;;;16.40;100.00;100822.06;5032709;28;20422;-69
2021/11/04 08:57:39;;;;;;;722.95;673.03;;;17.20;73.70;;;16.49;100.00;100822.00;5032619;28;20411;-65
2021/11/04 09:00:13;;;;;;;725.58;675.22;;;17.20;73.70;;;16.52;100.00;100818.63;5031402;28;20461;-66
2021/11/04 09:02:42;;;;;;;723.42;673.38;;;17.30;72.70;;;16.59;100.00;100820.88;5032289;28;20500;-66
2021/11/04 09:05:12;;;;;;;733.75;683.45;;;17.40;73.30;;;16.63;100.00;100822.59;5032350;28;20833;-63
2021/11/04 09:07:42;;;;;;;738.05;687.70;;;17.40;72.50;;;16.64;100.00;100815.22;5032352;28;20442;-67
2021/11/04 09:10:12;;;;;;;742.50;692.05;;;17.50;72.80;;;16.68;100.00;100824.34;5031329;28;20415;-67
2021/11/04 09:12:41;;;;;;;744.90;694.50;;;17.50;71.60;;;16.83;100.00;100816.38;5031702;28;20422;-66
2021/11/04 09:15:11;;;;;;;744.42;693.90;;;17.60;72.50;;;16.86;100.00;100815.72;5032321;28;20411;-66
2021/11/04 09:17:41;;;;;;;750.42;699.72;;;17.70;72.40;;;16.82;100.00;100820.25;5032441;28;20418;-68
2021/11/04 09:20:14;;;;;;;744.67;694.13;;;17.60;71.70;;;16.92;100.00;100821.78;5031086;28;20878;-65
2021/11/04 09:22:45;;;;;;;746.03;695.70;;;17.70;71.30;;;16.94;100.00;100823.06;5031932;28;20473;-66
2021/11/04 09:25:13;;;;;;;744.75;694.05;;;17.70;72.30;;;16.96;100.00;100827.38;5031945;28;20453;-66
2021/11/04 09:27:41;;;;;;;758.90;708.20;;;17.80;72.50;;;17.04;100.00;100826.53;5031611;28;20983;-68
2021/11/04 09:30:10;;;;;;;755.00;704.30;;;17.90;72.70;;;17.03;100.00;100831.19;5030915;28;20426;-65
2021/11/04 09:32:39;;;;;;;756.60;705.78;;;17.90;72.00;;;17.01;100.00;100828.00;5031627;28;20417;-65
2021/11/04 09:35:09;;;;;;;759.47;708.65;;;17.90;71.20;;;16.99;100.00;100822.06;5031614;28;20488;-65
2021/11/04 09:37:38;;;;;;;753.85;703.08;;;17.80;71.90;;;17.06;100.00;100825.06;5031638;28;20411;-64
2021/11/04 09:40:09;;;;;;;761.83;710.87;;;17.90;71.60;;;17.05;100.00;100826.19;5030702;28;20469;-65
2021/11/04 09:42:37;;;;;;;766.53;715.60;;;17.90;71.80;;;17.10;100.00;100830.66;5031543;28;20485;-68
2021/11/04 09:45:06;;;;;;;775.53;724.33;;;17.90;71.90;;;17.10;100.00;100836.13;5031641;28;20468;-66
2021/11/04 09:47:35;;;;;;;768.05;716.95;;;17.90;72.10;;;17.18;100.00;100838.78;5031428;28;20426;-67
2021/11/04 09:50:09;;;;;;;464.50;421.38;;;18.00;72.10;;;17.30;100.00;100843.50;5029288;28;20238;-65
2021/11/04 09:53:12;;;;;;;730.30;680.17;;;18.00;72.70;;;17.29;100.00;100842.72;5030921;28;20870;-64
2021/11/04 09:55:40;;;;;;;758.15;707.33;;;18.10;71.50;;;17.40;100.00;100843.09;4987642;28;20472;-64